sensor_id;sensor_type;location;lat;lon;timestamp;pressure;altitude;pressure_sealevel;temperature;humidity
48404;BME280;34202;52.536;6.042;2023-08-31T00:02:47;100785.73;;;12.86;100.00
48404;BME280;34202;52.536;6.042;2023-08-31T00:07:47;100780.86;;;12.82;100.00
48404;BME280;34202;52.536;6.042;2023-08-31T00:12:48;100780.16;;;12.80;100.00
48404;BME280;34202;52.536;6.042;2023-08-31T00:17:49;100783.84;;;12.77;100.00
48404;BME280;34202;52.536;6.042;2023-08-31T00:22:50;100782.11;;;12.76;100.00
48404;BME280;34202;52.536;6.042;2023-08-31T00:27:51;100785.41;;;12.76;100.00
48404;BME280;34202;52.536;6.042;2023-08-31T00:32:52;100785.60;;;12.77;100.00
48404;BME280;34202;52.536;6.042;2023-08-31T00:37:54;100785.41;;;12.77;100.00
48404;BME280;34202;52.536;6.042;2023-08-31T00:42:58;100799.90;;;12.78;100.00
48404;BME280;34202;52.536;6.042;2023-08-31T00:47:59;100812.30;;;12.78;100.00
48404;BME280;34202;52.536;6.042;2023-08-31T00:52:59;100811.63;;;12.76;100.00
48404;BME280;34202;52.536;6.042;2023-08-31T00:58:00;100796.95;;;12.74;100.00
48404;BME280;34202;52.536;6.042;2023-08-31T01:14:02;100756.47;;;12.66;100.00
48404;BME280;34202;52.536;6.042;2023-08-31T01:24:25;100742.16;;;12.59;100.00
48404;BME280;34202;52.536;6.042;2023-08-31T01:29:26;100748.98;;;12.57;100.00
48404;BME280;34202;52.536;6.042;2023-08-31T01:34:29;100754.39;;;12.57;100.00
48404;BME280;34202;52.536;6.042;2023-08-31T01:39:38;100755.09;;;12.56;100.00
48404;BME280;34202;52.536;6.042;2023-08-31T01:44:42;100743.58;;;12.54;100.00
48404;BME280;34202;52.536;6.042;2023-08-31T01:49:45;100740.80;;;12.50;100.00
48404;BME280;34202;52.536;6.042;2023-08-31T01:54:45;100736.63;;;12.42;100.00
48404;BME280;34202;52.536;6.042;2023-08-31T01:59:46;100724.26;;;12.36;100.00
48404;BME280;34202;52.536;6.042;2023-08-31T02:04:46;100735.08;;;12.32;100.00
48404;BME280;34202;52.536;6.042;2023-08-31T02:09:46;100731.09;;;12.25;100.00
48404;BME280;34202;52.536;6.042;2023-08-31T02:14:47;100728.99;;;12.19;100.00
48404;BME280;34202;52.536;6.042;2023-08-31T02:19:47;100732.85;;;12.13;100.00
48404;BME280;34202;52.536;6.042;2023-08-31T02:24:47;100736.69;;;12.08;100.00
48404;BME280;34202;52.536;6.042;2023-08-31T02:29:48;100740.00;;;12.04;100.00
48404;BME280;34202;52.536;6.042;2023-08-31T02:34:49;100743.84;;;12.00;100.00
48404;BME280;34202;52.536;6.042;2023-08-31T02:39:50;100746.81;;;11.98;100.00
48404;BME280;34202;52.536;6.042;2023-08-31T02:44:53;100746.83;;;11.97;100.00
48404;BME280;34202;52.536;6.042;2023-08-31T02:49:54;100751.00;;;11.93;100.00
48404;BME280;34202;52.536;6.042;2023-08-31T02:54:54;100751.88;;;11.91;100.00
48404;BME280;34202;52.536;6.042;2023-08-31T02:59:54;100754.81;;;11.89;100.00
48404;BME280;34202;52.536;6.042;2023-08-31T03:04:55;100752.89;;;11.86;100.00
48404;BME280;34202;52.536;6.042;2023-08-31T03:09:55;100753.60;;;11.84;100.00
48404;BME280;34202;52.536;6.042;2023-08-31T03:14:56;100755.14;;;11.82;100.00
48404;BME280;34202;52.536;6.042;2023-08-31T03:19:56;100754.29;;;11.78;100.00
48404;BME280;34202;52.536;6.042;2023-08-31T03:24:56;100758.98;;;11.73;100.00
48404;BME280;34202;52.536;6.042;2023-08-31T03:29:57;100756.38;;;11.70;100.00
48404;BME280;34202;52.536;6.042;2023-08-31T03:34:57;100763.16;;;11.68;100.00
48404;BME280;34202;52.536;6.042;2023-08-31T03:39:57;100756.02;;;11.66;100.00
48404;BME280;34202;52.536;6.042;2023-08-31T03:44:58;100752.19;;;11.64;100.00
48404;BME280;34202;52.536;6.042;2023-08-31T03:49:58;100750.60;;;11.62;100.00
48404;BME280;34202;52.536;6.042;2023-08-31T03:54:58;100749.91;;;11.60;100.00
48404;BME280;34202;52.536;6.042;2023-08-31T03:59:59;100748.68;;;11.58;100.00
48404;BME280;34202;52.536;6.042;2023-08-31T04:04:59;100756.87;;;11.57;100.00
48404;BME280;34202;52.536;6.042;2023-08-31T04:09:59;100761.77;;;11.56;100.00
48404;BME280;34202;52.536;6.042;2023-08-31T04:15:00;100763.84;;;11.56;100.00
48404;BME280;34202;52.536;6.042;2023-08-31T04:20:00;100770.65;;;11.56;100.00
48404;BME280;34202;52.536;6.042;2023-08-31T04:25:01;100772.91;;;11.56;100.00
48404;BME280;34202;52.536;6.042;2023-08-31T04:30:01;100779.71;;;11.57;100.00
48404;BME280;34202;52.536;6.042;2023-08-31T04:35:05;100774.48;;;11.58;100.00
48404;BME280;34202;52.536;6.042;2023-08-31T04:40:06;100783.91;;;11.60;100.00
48404;BME280;34202;52.536;6.042;2023-08-31T04:45:09;100784.60;;;11.63;100.00
48404;BME280;34202;52.536;6.042;2023-08-31T04:50:10;100779.73;;;11.64;100.00
48404;BME280;34202;52.536;6.042;2023-08-31T04:55:12;100786.69;;;11.66;100.00
48404;BME280;34202;52.536;6.042;2023-08-31T05:00:13;100794.89;;;11.67;100.00
48404;BME280;34202;52.536;6.042;2023-08-31T05:05:14;100795.77;;;11.67;100.00
48404;BME280;34202;52.536;6.042;2023-08-31T05:10:14;100796.81;;;11.68;100.00
48404;BME280;34202;52.536;6.042;2023-08-31T05:15:15;100803.25;;;11.68;100.00
48404;BME280;34202;52.536;6.042;2023-08-31T05:20:15;100809.37;;;11.68;100.00
48404;BME280;34202;52.536;6.042;2023-08-31T05:25:16;100819.30;;;11.70;100.00
48404;BME280;34202;52.536;6.042;2023-08-31T05:30:16;100830.29;;;11.70;100.00
48404;BME280;34202;52.536;6.042;2023-08-31T05:35:17;100835.16;;;11.71;100.00
48404;BME280;34202;52.536;6.042;2023-08-31T05:40:17;100837.96;;;11.72;100.00
48404;BME280;34202;52.536;6.042;2023-08-31T05:45:18;100842.16;;;11.74;100.00
48404;BME280;34202;52.536;6.042;2023-08-31T05:50:18;100846.16;;;11.77;100.00
48404;BME280;34202;52.536;6.042;2023-08-31T05:55:19;100851.77;;;11.80;100.00
48404;BME280;34202;52.536;6.042;2023-08-31T06:00:19;100852.63;;;11.83;100.00
48404;BME280;34202;52.536;6.042;2023-08-31T06:05:20;100858.21;;;11.87;100.00
48404;BME280;34202;52.536;6.042;2023-08-31T06:10:20;100861.91;;;11.92;100.00
48404;BME280;34202;52.536;6.042;2023-08-31T06:15:21;100866.64;;;11.97;100.00
48404;BME280;34202;52.536;6.042;2023-08-31T06:20:21;100871.70;;;12.05;100.00
48404;BME280;34202;52.536;6.042;2023-08-31T06:25:22;100877.31;;;12.14;100.00
48404;BME280;34202;52.536;6.042;2023-08-31T06:30:23;100885.33;;;12.24;100.00
48404;BME280;34202;52.536;6.042;2023-08-31T06:35:23;100890.05;;;12.37;100.00
48404;BME280;34202;52.536;6.042;2023-08-31T06:40:24;100896.16;;;12.50;100.00
48404;BME280;34202;52.536;6.042;2023-08-31T06:45:24;100897.89;;;12.60;100.00
48404;BME280;34202;52.536;6.042;2023-08-31T06:50:25;100897.89;;;12.68;100.00
48404;BME280;34202;52.536;6.042;2023-08-31T06:55:25;100905.05;;;12.75;100.00
48404;BME280;34202;52.536;6.042;2023-08-31T07:00:25;100908.70;;;12.84;100.00
48404;BME280;34202;52.536;6.042;2023-08-31T07:05:26;100910.77;;;12.98;100.00
48404;BME280;34202;52.536;6.042;2023-08-31T07:10:27;100915.09;;;13.14;100.00
48404;BME280;34202;52.536;6.042;2023-08-31T07:15:28;100923.62;;;13.28;100.00
48404;BME280;34202;52.536;6.042;2023-08-31T07:20:28;100931.13;;;13.40;100.00
48404;BME280;34202;52.536;6.042;2023-08-31T07:25:28;100932.99;;;13.55;100.00
48404;BME280;34202;52.536;6.042;2023-08-31T07:30:29;100938.73;;;13.67;100.00
48404;BME280;34202;52.536;6.042;2023-08-31T07:35:30;100935.30;;;13.85;100.00
48404;BME280;34202;52.536;6.042;2023-08-31T07:40:30;100937.65;;;14.04;100.00
48404;BME280;34202;52.536;6.042;2023-08-31T07:45:31;100939.78;;;14.25;100.00
48404;BME280;34202;52.536;6.042;2023-08-31T07:50:31;100933.69;;;14.46;100.00
48404;BME280;34202;52.536;6.042;2023-08-31T07:55:31;100934.38;;;14.71;100.00
48404;BME280;34202;52.536;6.042;2023-08-31T08:00:32;100943.33;;;14.90;100.00
48404;BME280;34202;52.536;6.042;2023-08-31T08:05:32;100944.39;;;15.06;100.00
48404;BME280;34202;52.536;6.042;2023-08-31T08:10:33;100954.05;;;15.21;100.00
48404;BME280;34202;52.536;6.042;2023-08-31T08:15:33;100964.13;;;15.31;100.00
48404;BME280;34202;52.536;6.042;2023-08-31T08:20:33;100967.14;;;15.44;100.00
48404;BME280;34202;52.536;6.042;2023-08-31T08:25:34;100977.89;;;15.54;100.00
48404;BME280;34202;52.536;6.042;2023-08-31T08:30:34;100978.52;;;15.60;100.00
48404;BME280;34202;52.536;6.042;2023-08-31T08:35:37;100977.61;;;15.78;100.00
48404;BME280;34202;52.536;6.042;2023-08-31T08:40:37;100977.17;;;16.00;100.00
48404;BME280;34202;52.536;6.042;2023-08-31T08:45:38;100984.14;;;16.17;100.00
48404;BME280;34202;52.536;6.042;2023-08-31T08:50:41;100986.80;;;16.40;100.00
48404;BME280;34202;52.536;6.042;2023-08-31T08:55:42;100988.96;;;16.59;100.00
48404;BME280;34202;52.536;6.042;2023-08-31T09:00:42;100995.48;;;16.79;100.00
48404;BME280;34202;52.536;6.042;2023-08-31T09:05:43;100998.56;;;16.97;100.00
48404;BME280;34202;52.536;6.042;2023-08-31T09:10:44;101000.27;;;17.19;100.00
48404;BME280;34202;52.536;6.042;2023-08-31T09:20:46;101008.79;;;17.62;100.00
48404;BME280;34202;52.536;6.042;2023-08-31T09:25:49;101014.94;;;17.80;100.00
48404;BME280;34202;52.536;6.042;2023-08-31T09:30:50;101009.93;;;17.94;100.00
48404;BME280;34202;52.536;6.042;2023-08-31T09:35:56;101009.66;;;18.15;100.00
48404;BME280;34202;52.536;6.042;2023-08-31T09:41:05;101007.56;;;18.30;100.00
48404;BME280;34202;52.536;6.042;2023-08-31T09:46:08;101014.00;;;18.49;100.00
48404;BME280;34202;52.536;6.042;2023-08-31T09:51:10;101017.98;;;18.59;100.00
48404;BME280;34202;52.536;6.042;2023-08-31T09:56:13;101013.65;;;18.64;100.00
48404;BME280;34202;52.536;6.042;2023-08-31T10:01:16;101011.09;;;18.83;100.00
48404;BME280;34202;52.536;6.042;2023-08-31T10:06:18;101014.09;;;19.04;100.00
48404;BME280;34202;52.536;6.042;2023-08-31T10:11:19;101021.28;;;19.20;100.00
48404;BME280;34202;52.536;6.042;2023-08-31T10:16:20;101028.99;;;19.22;98.76
48404;BME280;34202;52.536;6.042;2023-08-31T10:21:21;101033.61;;;19.20;97.96
48404;BME280;34202;52.536;6.042;2023-08-31T10:31:28;101039.09;;;18.99;97.21
48404;BME280;34202;52.536;6.042;2023-08-31T10:41:38;101040.35;;;18.84;97.79
48404;BME280;34202;52.536;6.042;2023-08-31T10:46:43;101034.09;;;18.87;98.99
48404;BME280;34202;52.536;6.042;2023-08-31T10:51:54;101029.09;;;19.04;99.97
48404;BME280;34202;52.536;6.042;2023-08-31T11:01:56;101011.51;;;19.42;99.53
48404;BME280;34202;52.536;6.042;2023-08-31T11:07:16;101021.09;;;19.73;98.76
48404;BME280;34202;52.536;6.042;2023-08-31T11:12:16;101033.26;;;19.80;95.94
48404;BME280;34202;52.536;6.042;2023-08-31T11:17:17;101032.92;;;19.79;95.61
48404;BME280;34202;52.536;6.042;2023-08-31T11:22:18;101041.60;;;19.85;95.28
48404;BME280;34202;52.536;6.042;2023-08-31T11:27:19;101040.11;;;19.75;92.94
48404;BME280;34202;52.536;6.042;2023-08-31T11:32:23;101081.98;;;19.47;90.91
48404;BME280;34202;52.536;6.042;2023-08-31T11:37:24;101093.97;;;19.13;90.35
48404;BME280;34202;52.536;6.042;2023-08-31T11:42:27;101069.33;;;18.81;90.69
48404;BME280;34202;52.536;6.042;2023-08-31T11:47:27;101061.14;;;18.60;91.28
48404;BME280;34202;52.536;6.042;2023-08-31T11:52:29;101058.90;;;18.59;93.12
48404;BME280;34202;52.536;6.042;2023-08-31T11:57:30;101055.05;;;18.65;95.78
48404;BME280;34202;52.536;6.042;2023-08-31T12:02:35;101051.91;;;18.71;95.49
48404;BME280;34202;52.536;6.042;2023-08-31T12:07:41;101060.21;;;18.70;95.06
48404;BME280;34202;52.536;6.042;2023-08-31T12:12:41;101060.20;;;18.70;94.82
48404;BME280;34202;52.536;6.042;2023-08-31T12:17:42;101066.60;;;18.76;94.46
48404;BME280;34202;52.536;6.042;2023-08-31T12:22:45;101079.15;;;18.75;93.57
48404;BME280;34202;52.536;6.042;2023-08-31T12:27:45;101085.71;;;18.81;94.06
48404;BME280;34202;52.536;6.042;2023-08-31T12:32:46;101084.80;;;18.98;93.54
48404;BME280;34202;52.536;6.042;2023-08-31T12:37:46;101080.48;;;19.15;92.98
48404;BME280;34202;52.536;6.042;2023-08-31T12:42:46;101079.00;;;19.33;92.64
48404;BME280;34202;52.536;6.042;2023-08-31T12:47:47;101079.94;;;19.44;91.41
48404;BME280;34202;52.536;6.042;2023-08-31T12:52:47;101077.10;;;19.52;90.76
48404;BME280;34202;52.536;6.042;2023-08-31T12:57:48;101083.17;;;19.62;90.31
48404;BME280;34202;52.536;6.042;2023-08-31T13:02:50;101084.55;;;19.69;89.67
48404;BME280;34202;52.536;6.042;2023-08-31T13:07:51;101092.30;;;19.70;88.52
48404;BME280;34202;52.536;6.042;2023-08-31T13:12:51;101098.73;;;19.68;87.41
48404;BME280;34202;52.536;6.042;2023-08-31T13:17:51;101101.86;;;19.69;87.52
48404;BME280;34202;52.536;6.042;2023-08-31T13:22:52;101104.29;;;19.71;87.44
48404;BME280;34202;52.536;6.042;2023-08-31T13:27:52;101106.63;;;19.77;87.93
48404;BME280;34202;52.536;6.042;2023-08-31T13:32:53;101099.52;;;19.85;87.52
48404;BME280;34202;52.536;6.042;2023-08-31T13:37:53;101097.97;;;19.90;87.36
48404;BME280;34202;52.536;6.042;2023-08-31T13:42:55;101099.59;;;19.95;86.37
48404;BME280;34202;52.536;6.042;2023-08-31T13:48:03;101097.12;;;19.96;83.90
48404;BME280;34202;52.536;6.042;2023-08-31T13:53:04;101100.97;;;20.03;83.56
48404;BME280;34202;52.536;6.042;2023-08-31T13:58:05;101104.14;;;20.03;82.94
48404;BME280;34202;52.536;6.042;2023-08-31T14:03:07;101108.67;;;20.05;83.15
48404;BME280;34202;52.536;6.042;2023-08-31T14:08:07;101109.70;;;20.13;82.41
48404;BME280;34202;52.536;6.042;2023-08-31T14:13:08;101111.56;;;20.21;82.29
48404;BME280;34202;52.536;6.042;2023-08-31T14:18:08;101114.52;;;20.35;81.02
48404;BME280;34202;52.536;6.042;2023-08-31T14:23:09;101116.65;;;20.41;80.03
48404;BME280;34202;52.536;6.042;2023-08-31T14:28:09;101123.25;;;20.39;78.85
48404;BME280;34202;52.536;6.042;2023-08-31T14:33:09;101122.79;;;20.37;78.62
48404;BME280;34202;52.536;6.042;2023-08-31T14:38:11;101125.81;;;20.42;78.98
48404;BME280;34202;52.536;6.042;2023-08-31T14:43:12;101128.43;;;20.43;78.38
48404;BME280;34202;52.536;6.042;2023-08-31T14:48:12;101132.67;;;20.43;77.13
48404;BME280;34202;52.536;6.042;2023-08-31T14:53:13;101137.27;;;20.43;76.89
48404;BME280;34202;52.536;6.042;2023-08-31T14:58:13;101140.23;;;20.44;76.69
48404;BME280;34202;52.536;6.042;2023-08-31T15:03:14;101141.13;;;20.44;76.22
48404;BME280;34202;52.536;6.042;2023-08-31T15:08:14;101142.40;;;20.49;75.76
48404;BME280;34202;52.536;6.042;2023-08-31T15:13:14;101144.86;;;20.55;75.21
48404;BME280;34202;52.536;6.042;2023-08-31T15:18:15;101149.71;;;20.58;73.92
48404;BME280;34202;52.536;6.042;2023-08-31T15:23:16;101149.91;;;20.52;72.32
48404;BME280;34202;52.536;6.042;2023-08-31T15:28:16;101150.67;;;20.50;72.57
48404;BME280;34202;52.536;6.042;2023-08-31T15:33:17;101157.49;;;20.53;72.41
48404;BME280;34202;52.536;6.042;2023-08-31T15:38:17;101154.85;;;20.52;71.60
48404;BME280;34202;52.536;6.042;2023-08-31T15:43:17;101155.63;;;20.50;71.44
48404;BME280;34202;52.536;6.042;2023-08-31T15:48:19;101159.40;;;20.54;71.50
48404;BME280;34202;52.536;6.042;2023-08-31T15:53:19;101165.91;;;20.49;71.02
48404;BME280;34202;52.536;6.042;2023-08-31T15:58:19;101166.55;;;20.44;70.39
48404;BME280;34202;52.536;6.042;2023-08-31T16:03:20;101170.08;;;20.40;70.07
48404;BME280;34202;52.536;6.042;2023-08-31T16:08:22;101178.99;;;20.37;70.26
48404;BME280;34202;52.536;6.042;2023-08-31T16:13:22;101174.28;;;20.29;70.04
48404;BME280;34202;52.536;6.042;2023-08-31T16:18:23;101170.69;;;20.18;69.71
48404;BME280;34202;52.536;6.042;2023-08-31T16:23:23;101163.02;;;20.01;68.83
48404;BME280;34202;52.536;6.042;2023-08-31T16:28:23;101166.96;;;19.86;68.86
48404;BME280;34202;52.536;6.042;2023-08-31T16:33:24;101174.24;;;19.70;68.85
48404;BME280;34202;52.536;6.042;2023-08-31T16:38:25;101178.34;;;19.55;68.61
48404;BME280;34202;52.536;6.042;2023-08-31T16:43:25;101177.48;;;19.39;68.38
48404;BME280;34202;52.536;6.042;2023-08-31T16:48:27;101177.33;;;19.24;68.38
48404;BME280;34202;52.536;6.042;2023-08-31T16:53:28;101179.96;;;19.09;68.24
48404;BME280;34202;52.536;6.042;2023-08-31T16:58:28;101189.25;;;18.96;68.14
48404;BME280;34202;52.536;6.042;2023-08-31T17:03:29;101190.41;;;18.83;68.09
48404;BME280;34202;52.536;6.042;2023-08-31T17:08:29;101190.86;;;18.69;67.97
48404;BME280;34202;52.536;6.042;2023-08-31T17:13:32;101186.01;;;18.57;68.39
48404;BME280;34202;52.536;6.042;2023-08-31T17:18:32;101189.15;;;18.50;68.94
48404;BME280;34202;52.536;6.042;2023-08-31T17:23:32;101193.88;;;18.44;69.58
48404;BME280;34202;52.536;6.042;2023-08-31T17:28:33;101195.08;;;18.36;69.87
48404;BME280;34202;52.536;6.042;2023-08-31T17:33:33;101192.42;;;18.28;70.20
48404;BME280;34202;52.536;6.042;2023-08-31T17:38:34;101195.06;;;18.19;70.16
48404;BME280;34202;52.536;6.042;2023-08-31T17:43:36;101202.29;;;18.09;70.52
48404;BME280;34202;52.536;6.042;2023-08-31T17:48:37;101205.77;;;18.02;70.96
48404;BME280;34202;52.536;6.042;2023-08-31T17:53:38;101207.67;;;17.94;71.38
48404;BME280;34202;52.536;6.042;2023-08-31T17:58:38;101213.79;;;17.86;71.78
48404;BME280;34202;52.536;6.042;2023-08-31T18:03:39;101213.54;;;17.78;72.06
48404;BME280;34202;52.536;6.042;2023-08-31T18:08:39;101220.39;;;17.69;72.59
48404;BME280;34202;52.536;6.042;2023-08-31T18:13:45;101221.96;;;17.59;72.92
48404;BME280;34202;52.536;6.042;2023-08-31T18:18:46;101225.27;;;17.50;73.21
48404;BME280;34202;52.536;6.042;2023-08-31T18:23:46;101227.34;;;17.42;73.67
48404;BME280;34202;52.536;6.042;2023-08-31T18:28:46;101230.65;;;17.33;74.12
48404;BME280;34202;52.536;6.042;2023-08-31T18:33:47;101236.94;;;17.23;74.52
48404;BME280;34202;52.536;6.042;2023-08-31T18:38:47;101242.02;;;17.13;74.85
48404;BME280;34202;52.536;6.042;2023-08-31T18:43:48;101238.48;;;17.03;75.18
48404;BME280;34202;52.536;6.042;2023-08-31T18:48:49;101238.08;;;16.92;75.60
48404;BME280;34202;52.536;6.042;2023-08-31T18:53:49;101233.25;;;16.82;76.01
48404;BME280;34202;52.536;6.042;2023-08-31T18:58:49;101233.05;;;16.71;76.55
48404;BME280;34202;52.536;6.042;2023-08-31T19:03:50;101237.72;;;16.60;76.97
48404;BME280;34202;52.536;6.042;2023-08-31T19:08:52;101234.52;;;16.50;77.55
48404;BME280;34202;52.536;6.042;2023-08-31T19:13:52;101243.26;;;16.39;78.01
48404;BME280;34202;52.536;6.042;2023-08-31T19:18:53;101253.00;;;16.29;78.36
48404;BME280;34202;52.536;6.042;2023-08-31T19:23:53;101254.88;;;16.18;78.82
48404;BME280;34202;52.536;6.042;2023-08-31T19:28:54;101264.81;;;16.08;79.20
48404;BME280;34202;52.536;6.042;2023-08-31T19:33:55;101265.08;;;15.98;79.60
48404;BME280;34202;52.536;6.042;2023-08-31T19:38:55;101270.25;;;15.88;80.05
48404;BME280;34202;52.536;6.042;2023-08-31T19:43:55;101267.88;;;15.79;80.60
48404;BME280;34202;52.536;6.042;2023-08-31T19:48:56;101262.48;;;15.70;80.96
48404;BME280;34202;52.536;6.042;2023-08-31T19:53:56;101266.05;;;15.60;81.23
48404;BME280;34202;52.536;6.042;2023-08-31T19:58:58;101260.50;;;15.52;81.59
48404;BME280;34202;52.536;6.042;2023-08-31T20:04:00;101266.70;;;15.43;81.90
48404;BME280;34202;52.536;6.042;2023-08-31T20:09:00;101271.50;;;15.33;82.23
48404;BME280;34202;52.536;6.042;2023-08-31T20:14:00;101272.23;;;15.23;82.49
48404;BME280;34202;52.536;6.042;2023-08-31T20:19:04;101277.02;;;15.17;82.92
48404;BME280;34202;52.536;6.042;2023-08-31T20:24:05;101272.66;;;15.10;83.15
48404;BME280;34202;52.536;6.042;2023-08-31T20:29:06;101275.15;;;15.03;83.49
48404;BME280;34202;52.536;6.042;2023-08-31T20:34:06;101284.48;;;14.96;83.65
48404;BME280;34202;52.536;6.042;2023-08-31T20:39:07;101287.84;;;14.90;83.98
48404;BME280;34202;52.536;6.042;2023-08-31T20:44:09;101284.19;;;14.83;84.32
48404;BME280;34202;52.536;6.042;2023-08-31T20:49:09;101279.13;;;14.77;84.63
48404;BME280;34202;52.536;6.042;2023-08-31T20:54:10;101284.23;;;14.69;84.76
48404;BME280;34202;52.536;6.042;2023-08-31T20:59:11;101283.20;;;14.62;85.13
48404;BME280;34202;52.536;6.042;2023-08-31T21:04:11;101297.73;;;14.56;85.49
48404;BME280;34202;52.536;6.042;2023-08-31T21:09:12;101298.09;;;14.51;85.87
48404;BME280;34202;52.536;6.042;2023-08-31T21:14:12;101298.28;;;14.45;86.12
48404;BME280;34202;52.536;6.042;2023-08-31T21:19:12;101304.08;;;14.38;86.54
48404;BME280;34202;52.536;6.042;2023-08-31T21:24:13;101303.73;;;14.32;86.87
48404;BME280;34202;52.536;6.042;2023-08-31T21:29:13;101294.27;;;14.28;87.21
48404;BME280;34202;52.536;6.042;2023-08-31T21:34:13;101292.00;;;14.24;87.38
48404;BME280;34202;52.536;6.042;2023-08-31T21:39:14;101287.45;;;14.21;87.69
48404;BME280;34202;52.536;6.042;2023-08-31T21:44:14;101278.54;;;14.18;87.91
48404;BME280;34202;52.536;6.042;2023-08-31T21:49:14;101280.30;;;14.14;88.19
48404;BME280;34202;52.536;6.042;2023-08-31T21:54:15;101285.36;;;14.09;88.46
48404;BME280;34202;52.536;6.042;2023-08-31T21:59:15;101289.75;;;14.06;88.84
48404;BME280;34202;52.536;6.042;2023-08-31T22:04:16;101290.27;;;14.02;88.86
48404;BME280;34202;52.536;6.042;2023-08-31T22:09:17;101296.58;;;13.98;89.16
48404;BME280;34202;52.536;6.042;2023-08-31T22:14:19;101298.67;;;13.95;89.49
48404;BME280;34202;52.536;6.042;2023-08-31T22:19:20;101297.10;;;13.91;89.89
48404;BME280;34202;52.536;6.042;2023-08-31T22:24:20;101295.35;;;13.89;90.04
48404;BME280;34202;52.536;6.042;2023-08-31T22:29:21;101293.06;;;13.87;90.49
48404;BME280;34202;52.536;6.042;2023-08-31T22:34:21;101294.98;;;13.85;90.73
48404;BME280;34202;52.536;6.042;2023-08-31T22:39:22;101293.77;;;13.83;91.05
48404;BME280;34202;52.536;6.042;2023-08-31T22:44:22;101301.46;;;13.81;91.26
48404;BME280;34202;52.536;6.042;2023-08-31T22:49:23;101311.27;;;13.80;91.72
48404;BME280;34202;52.536;6.042;2023-08-31T22:54:23;101314.40;;;13.78;91.80
48404;BME280;34202;52.536;6.042;2023-08-31T22:59:23;101308.98;;;13.78;92.48
48404;BME280;34202;52.536;6.042;2023-08-31T23:04:24;101294.47;;;13.78;92.93
48404;BME280;34202;52.536;6.042;2023-08-31T23:09:24;101293.94;;;13.78;93.28
48404;BME280;34202;52.536;6.042;2023-08-31T23:14:27;101295.52;;;13.78;93.70
48404;BME280;34202;52.536;6.042;2023-08-31T23:19:27;101295.33;;;13.78;93.91
48404;BME280;34202;52.536;6.042;2023-08-31T23:24:28;101292.36;;;13.78;94.19
48404;BME280;34202;52.536;6.042;2023-08-31T23:29:28;101284.83;;;13.78;94.37
48404;BME280;34202;52.536;6.042;2023-08-31T23:34:29;101278.73;;;13.79;94.67
48404;BME280;34202;52.536;6.042;2023-08-31T23:39:29;101278.55;;;13.80;94.86
48404;BME280;34202;52.536;6.042;2023-08-31T23:44:29;101277.33;;;13.81;95.08
48404;BME280;34202;52.536;6.042;2023-08-31T23:49:30;101276.61;;;13.82;95.38
48404;BME280;34202;52.536;6.042;2023-08-31T23:54:31;101272.60;;;13.82;95.56
48404;BME280;34202;52.536;6.042;2023-08-31T23:59:31;101266.83;;;13.83;95.80
